sensor_id;sensor_type;location;lat;lon;timestamp;pressure;altitude;pressure_sealevel;temperature;humidity
54236;BME280;40151;43.606;1.472;2023-07-29T00:00:44;99113.56;;;28.83;47.65
54236;BME280;40151;43.606;1.472;2023-07-29T00:03:09;99114.69;;;28.80;47.66
54236;BME280;40151;43.606;1.472;2023-07-29T00:05:37;99106.66;;;28.80;47.85
54236;BME280;40151;43.606;1.472;2023-07-29T00:08:02;99119.22;;;28.80;47.75
54236;BME280;40151;43.606;1.472;2023-07-29T00:10:30;99109.47;;;28.79;47.93
54236;BME280;40151;43.606;1.472;2023-07-29T00:12:57;99110.47;;;28.78;47.91
54236;BME280;40151;43.606;1.472;2023-07-29T00:15:23;99109.34;;;28.80;48.04
54236;BME280;40151;43.606;1.472;2023-07-29T00:17:48;99101.41;;;28.79;47.82
54236;BME280;40151;43.606;1.472;2023-07-29T00:20:14;99098.75;;;28.79;48.26
54236;BME280;40151;43.606;1.472;2023-07-29T00:22:40;99097.72;;;28.80;47.83
54236;BME280;40151;43.606;1.472;2023-07-29T00:25:06;99105.13;;;28.78;48.18
54236;BME280;40151;43.606;1.472;2023-07-29T00:27:31;99100.59;;;28.78;48.23
54236;BME280;40151;43.606;1.472;2023-07-29T00:29:57;99092.38;;;28.80;48.06
54236;BME280;40151;43.606;1.472;2023-07-29T00:32:22;99092.69;;;28.77;48.31
54236;BME280;40151;43.606;1.472;2023-07-29T00:34:47;99088.16;;;28.77;48.34
54236;BME280;40151;43.606;1.472;2023-07-29T00:37:13;99088.31;;;28.76;48.14
54236;BME280;40151;43.606;1.472;2023-07-29T00:39:38;99084.78;;;28.75;48.43
54236;BME280;40151;43.606;1.472;2023-07-29T00:42:05;99088.31;;;28.76;48.35
54236;BME280;40151;43.606;1.472;2023-07-29T00:44:30;99089.28;;;28.75;48.18
54236;BME280;40151;43.606;1.472;2023-07-29T00:46:57;99077.72;;;28.74;48.09
54236;BME280;40151;43.606;1.472;2023-07-29T00:49:22;99079.56;;;28.74;48.43
54236;BME280;40151;43.606;1.472;2023-07-29T00:51:49;99072.50;;;28.73;48.08
54236;BME280;40151;43.606;1.472;2023-07-29T00:54:14;99080.56;;;28.73;48.21
54236;BME280;40151;43.606;1.472;2023-07-29T00:56:40;99082.25;;;28.74;48.31
54236;BME280;40151;43.606;1.472;2023-07-29T00:59:06;99080.88;;;28.70;48.15
54236;BME280;40151;43.606;1.472;2023-07-29T01:01:31;99082.19;;;28.65;48.30
54236;BME280;40151;43.606;1.472;2023-07-29T01:03:57;99086.56;;;28.66;48.33
54236;BME280;40151;43.606;1.472;2023-07-29T01:06:46;99079.34;;;28.67;48.21
54236;BME280;40151;43.606;1.472;2023-07-29T01:16:47;99075.13;;;28.64;48.36
54236;BME280;40151;43.606;1.472;2023-07-29T01:19:53;99078.63;;;28.65;48.25
54236;BME280;40151;43.606;1.472;2023-07-29T01:22:20;99077.81;;;28.64;48.35
54236;BME280;40151;43.606;1.472;2023-07-29T01:24:46;99077.81;;;28.64;48.16
54236;BME280;40151;43.606;1.472;2023-07-29T01:27:11;99077.81;;;28.64;48.17
54236;BME280;40151;43.606;1.472;2023-07-29T01:29:37;99072.44;;;28.64;48.26
54236;BME280;40151;43.606;1.472;2023-07-29T01:32:09;99068.75;;;28.65;48.45
54236;BME280;40151;43.606;1.472;2023-07-29T01:34:43;99078.81;;;28.63;48.44
54236;BME280;40151;43.606;1.472;2023-07-29T01:37:14;99086.88;;;28.63;48.37
54236;BME280;40151;43.606;1.472;2023-07-29T01:39:43;99083.47;;;28.61;48.70
54236;BME280;40151;43.606;1.472;2023-07-29T01:42:10;99088.03;;;28.61;48.63
54236;BME280;40151;43.606;1.472;2023-07-29T01:44:36;99086.47;;;28.58;48.38
54236;BME280;40151;43.606;1.472;2023-07-29T01:47:02;99088.31;;;28.58;48.41
54236;BME280;40151;43.606;1.472;2023-07-29T01:49:27;99080.59;;;28.54;48.19
54236;BME280;40151;43.606;1.472;2023-07-29T01:51:52;99078.72;;;28.55;48.43
54236;BME280;40151;43.606;1.472;2023-07-29T01:54:18;99072.69;;;28.53;48.38
54236;BME280;40151;43.606;1.472;2023-07-29T01:56:43;99075.50;;;28.51;48.24
54236;BME280;40151;43.606;1.472;2023-07-29T01:59:09;99073.97;;;28.49;48.42
54236;BME280;40151;43.606;1.472;2023-07-29T02:01:34;99061.56;;;28.48;48.26
54236;BME280;40151;43.606;1.472;2023-07-29T02:03:59;99056.19;;;28.48;48.35
54236;BME280;40151;43.606;1.472;2023-07-29T02:06:25;99053.19;;;28.51;48.42
54236;BME280;40151;43.606;1.472;2023-07-29T02:08:52;99062.94;;;28.52;48.39
54236;BME280;40151;43.606;1.472;2023-07-29T02:11:17;99056.19;;;28.48;48.53
54236;BME280;40151;43.606;1.472;2023-07-29T02:13:45;99059.16;;;28.45;48.60
54236;BME280;40151;43.606;1.472;2023-07-29T02:16:11;99051.44;;;28.41;48.46
54236;BME280;40151;43.606;1.472;2023-07-29T02:18:36;99054.41;;;28.38;48.52
54236;BME280;40151;43.606;1.472;2023-07-29T02:21:02;99052.03;;;28.35;48.57
54236;BME280;40151;43.606;1.472;2023-07-29T02:23:28;99051.34;;;28.33;48.52
54236;BME280;40151;43.606;1.472;2023-07-29T02:25:53;99041.59;;;28.32;48.85
54236;BME280;40151;43.606;1.472;2023-07-29T02:28:19;99047.97;;;28.31;48.55
54236;BME280;40151;43.606;1.472;2023-07-29T02:30:44;99043.59;;;28.30;48.87
54236;BME280;40151;43.606;1.472;2023-07-29T02:33:10;99041.91;;;28.29;48.43
54236;BME280;40151;43.606;1.472;2023-07-29T02:35:35;99040.25;;;28.28;48.36
54236;BME280;40151;43.606;1.472;2023-07-29T02:38:01;99033.16;;;28.27;48.50
54236;BME280;40151;43.606;1.472;2023-07-29T02:40:26;99027.13;;;28.25;48.57
54236;BME280;40151;43.606;1.472;2023-07-29T02:42:53;99028.13;;;28.24;48.71
54236;BME280;40151;43.606;1.472;2023-07-29T02:45:18;99025.44;;;28.24;48.56
54236;BME280;40151;43.606;1.472;2023-07-29T02:47:44;99029.78;;;28.25;48.62
54236;BME280;40151;43.606;1.472;2023-07-29T02:50:09;99024.56;;;28.23;48.83
54236;BME280;40151;43.606;1.472;2023-07-29T02:52:34;99024.72;;;28.22;48.77
54236;BME280;40151;43.606;1.472;2023-07-29T02:55:00;99017.66;;;28.21;48.53
54236;BME280;40151;43.606;1.472;2023-07-29T02:57:25;99021.31;;;28.20;48.85
54236;BME280;40151;43.606;1.472;2023-07-29T02:59:51;99018.78;;;28.18;48.85
54236;BME280;40151;43.606;1.472;2023-07-29T03:02:16;99017.97;;;28.18;48.67
54236;BME280;40151;43.606;1.472;2023-07-29T03:04:41;99016.28;;;28.17;48.46
54236;BME280;40151;43.606;1.472;2023-07-29T03:07:07;99016.28;;;28.17;48.87
54236;BME280;40151;43.606;1.472;2023-07-29T03:09:32;99017.44;;;28.14;48.65
54236;BME280;40151;43.606;1.472;2023-07-29T03:11:58;99016.56;;;28.13;48.62
54236;BME280;40151;43.606;1.472;2023-07-29T03:14:24;99014.88;;;28.12;48.93
54236;BME280;40151;43.606;1.472;2023-07-29T03:16:50;99011.22;;;28.13;48.86
54236;BME280;40151;43.606;1.472;2023-07-29T03:19:15;99013.88;;;28.13;48.59
54236;BME280;40151;43.606;1.472;2023-07-29T03:21:41;99012.34;;;28.11;48.63
54236;BME280;40151;43.606;1.472;2023-07-29T03:24:06;99014.22;;;28.10;48.39
54236;BME280;40151;43.606;1.472;2023-07-29T03:26:32;99015.19;;;28.09;48.47
54236;BME280;40151;43.606;1.472;2023-07-29T03:28:57;99012.50;;;28.09;48.44
54236;BME280;40151;43.606;1.472;2023-07-29T03:31:23;99011.66;;;28.09;48.66
54236;BME280;40151;43.606;1.472;2023-07-29T03:33:48;99012.50;;;28.09;48.37
54236;BME280;40151;43.606;1.472;2023-07-29T03:36:14;99014.34;;;28.09;48.53
54236;BME280;40151;43.606;1.472;2023-07-29T03:38:40;99009.13;;;28.07;48.79
54236;BME280;40151;43.606;1.472;2023-07-29T03:41:09;99004.78;;;28.06;48.79
54236;BME280;40151;43.606;1.472;2023-07-29T03:43:34;99005.59;;;28.07;48.64
54236;BME280;40151;43.606;1.472;2023-07-29T03:46:00;99011.97;;;28.06;48.51
54236;BME280;40151;43.606;1.472;2023-07-29T03:48:26;99008.44;;;28.05;48.76
54236;BME280;40151;43.606;1.472;2023-07-29T03:50:51;99004.78;;;28.06;48.54
54236;BME280;40151;43.606;1.472;2023-07-29T03:53:16;99005.59;;;28.07;48.50
54236;BME280;40151;43.606;1.472;2023-07-29T03:55:42;99001.09;;;28.07;48.72
54236;BME280;40151;43.606;1.472;2023-07-29T03:58:08;99002.91;;;28.07;48.56
54236;BME280;40151;43.606;1.472;2023-07-29T04:00:33;99006.44;;;28.07;48.39
54236;BME280;40151;43.606;1.472;2023-07-29T04:02:59;99006.16;;;28.10;48.59
54236;BME280;40151;43.606;1.472;2023-07-29T04:05:24;99008.13;;;28.08;48.23
54236;BME280;40151;43.606;1.472;2023-07-29T04:07:50;99006.44;;;28.07;48.38
54236;BME280;40151;43.606;1.472;2023-07-29T04:10:15;99001.94;;;28.08;48.48
54236;BME280;40151;43.606;1.472;2023-07-29T04:12:41;99011.53;;;28.10;48.40
54236;BME280;40151;43.606;1.472;2023-07-29T04:15:07;99004.44;;;28.09;48.37
54236;BME280;40151;43.606;1.472;2023-07-29T04:17:32;99010.53;;;28.11;48.55
54236;BME280;40151;43.606;1.472;2023-07-29T04:19:57;99011.22;;;28.13;48.54
54236;BME280;40151;43.606;1.472;2023-07-29T04:22:23;99012.88;;;28.14;48.13
54236;BME280;40151;43.606;1.472;2023-07-29T04:24:48;99011.22;;;28.13;48.25
54236;BME280;40151;43.606;1.472;2023-07-29T04:27:14;99012.88;;;28.14;48.46
54236;BME280;40151;43.606;1.472;2023-07-29T04:29:39;99018.25;;;28.14;48.49
54236;BME280;40151;43.606;1.472;2023-07-29T04:32:05;99017.44;;;28.14;48.40
54236;BME280;40151;43.606;1.472;2023-07-29T04:34:31;99016.56;;;28.13;48.62
54236;BME280;40151;43.606;1.472;2023-07-29T04:36:57;99012.22;;;28.12;48.62
54236;BME280;40151;43.606;1.472;2023-07-29T04:39:22;99013.06;;;28.13;48.82
54236;BME280;40151;43.606;1.472;2023-07-29T04:41:48;99019.25;;;28.13;48.53
54236;BME280;40151;43.606;1.472;2023-07-29T04:44:13;99017.56;;;28.12;48.82
54236;BME280;40151;43.606;1.472;2023-07-29T04:46:38;99014.88;;;28.12;48.58
54236;BME280;40151;43.606;1.472;2023-07-29T04:49:04;99025.91;;;28.09;48.38
54236;BME280;40151;43.606;1.472;2023-07-29T04:51:30;99019.00;;;28.07;48.54
54236;BME280;40151;43.606;1.472;2023-07-29T04:53:57;99019.19;;;28.05;48.64
54236;BME280;40151;43.606;1.472;2023-07-29T04:56:22;99017.78;;;28.01;48.82
54236;BME280;40151;43.606;1.472;2023-07-29T04:58:48;99020.31;;;28.03;48.41
54236;BME280;40151;43.606;1.472;2023-07-29T05:01:13;99016.94;;;28.00;48.64
54236;BME280;40151;43.606;1.472;2023-07-29T05:03:39;99020.75;;;27.98;48.73
54236;BME280;40151;43.606;1.472;2023-07-29T05:06:05;99018.06;;;27.98;48.65
54236;BME280;40151;43.606;1.472;2023-07-29T05:08:30;99026.28;;;27.96;48.77
54236;BME280;40151;43.606;1.472;2023-07-29T05:10:56;99023.75;;;27.95;48.58
54236;BME280;40151;43.606;1.472;2023-07-29T05:13:22;99019.53;;;27.92;48.80
54236;BME280;40151;43.606;1.472;2023-07-29T05:15:48;99022.88;;;27.94;48.60
54236;BME280;40151;43.606;1.472;2023-07-29T05:18:15;99020.38;;;27.93;48.93
54236;BME280;40151;43.606;1.472;2023-07-29T05:20:40;99017.69;;;27.93;48.94
54236;BME280;40151;43.606;1.472;2023-07-29T05:23:06;99019.38;;;27.94;48.63
54236;BME280;40151;43.606;1.472;2023-07-29T05:25:31;99023.06;;;27.93;48.58
54236;BME280;40151;43.606;1.472;2023-07-29T05:27:57;99020.38;;;27.93;48.95
54236;BME280;40151;43.606;1.472;2023-07-29T05:30:23;99021.22;;;27.93;48.80
54236;BME280;40151;43.606;1.472;2023-07-29T05:32:48;99022.06;;;27.94;48.58
54236;BME280;40151;43.606;1.472;2023-07-29T05:35:14;99023.22;;;27.91;48.62
54236;BME280;40151;43.606;1.472;2023-07-29T05:37:40;99024.03;;;27.92;48.60
54236;BME280;40151;43.606;1.472;2023-07-29T05:40:06;99022.88;;;27.94;48.88
54236;BME280;40151;43.606;1.472;2023-07-29T05:42:32;99019.53;;;27.92;48.59
54236;BME280;40151;43.606;1.472;2023-07-29T05:44:58;99022.06;;;27.94;48.56
54236;BME280;40151;43.606;1.472;2023-07-29T05:47:23;99024.03;;;27.92;48.88
54236;BME280;40151;43.606;1.472;2023-07-29T05:49:48;99016.72;;;27.94;48.58
54236;BME280;40151;43.606;1.472;2023-07-29T05:52:14;99021.22;;;27.93;48.67
54236;BME280;40151;43.606;1.472;2023-07-29T05:54:40;99023.06;;;27.93;48.94
54236;BME280;40151;43.606;1.472;2023-07-29T05:57:05;99021.94;;;27.95;48.49
54236;BME280;40151;43.606;1.472;2023-07-29T05:59:31;99022.06;;;27.94;48.63
54236;BME280;40151;43.606;1.472;2023-07-29T06:01:56;99023.75;;;27.95;48.75
54236;BME280;40151;43.606;1.472;2023-07-29T06:04:22;99013.72;;;27.97;48.81
54236;BME280;40151;43.606;1.472;2023-07-29T06:06:48;99015.72;;;27.95;48.87
54236;BME280;40151;43.606;1.472;2023-07-29T06:09:13;99009.34;;;27.96;48.54
54236;BME280;40151;43.606;1.472;2023-07-29T06:11:38;99018.38;;;27.95;48.85
54236;BME280;40151;43.606;1.472;2023-07-29T06:14:04;99025.44;;;27.96;48.45
54236;BME280;40151;43.606;1.472;2023-07-29T06:16:29;99023.44;;;27.98;48.80
54236;BME280;40151;43.606;1.472;2023-07-29T06:18:54;99031.66;;;27.96;48.84
54236;BME280;40151;43.606;1.472;2023-07-29T06:21:20;99023.44;;;27.98;48.80
54236;BME280;40151;43.606;1.472;2023-07-29T06:23:46;99028.78;;;27.98;48.83
54236;BME280;40151;43.606;1.472;2023-07-29T06:26:12;99034.16;;;27.98;48.86
54236;BME280;40151;43.606;1.472;2023-07-29T06:28:37;99033.00;;;28.00;48.40
54236;BME280;40151;43.606;1.472;2023-07-29T06:31:03;99039.38;;;27.99;48.59
54236;BME280;40151;43.606;1.472;2023-07-29T06:33:28;99041.22;;;27.99;48.43
54236;BME280;40151;43.606;1.472;2023-07-29T06:35:53;99035.88;;;27.99;48.82
54236;BME280;40151;43.606;1.472;2023-07-29T06:38:19;99043.19;;;27.97;48.81
54236;BME280;40151;43.606;1.472;2023-07-29T06:40:47;99045.88;;;27.97;48.89
54236;BME280;40151;43.606;1.472;2023-07-29T06:43:13;99044.06;;;27.97;48.61
54236;BME280;40151;43.606;1.472;2023-07-29T06:45:38;99048.28;;;28.00;48.71
54236;BME280;40151;43.606;1.472;2023-07-29T06:48:04;99039.53;;;27.98;48.59
54236;BME280;40151;43.606;1.472;2023-07-29T06:50:29;99049.09;;;28.00;48.41
54236;BME280;40151;43.606;1.472;2023-07-29T06:52:55;99049.97;;;28.01;48.53
54236;BME280;40151;43.606;1.472;2023-07-29T06:55:20;99052.66;;;28.01;48.97
54236;BME280;40151;43.606;1.472;2023-07-29T06:57:45;99046.44;;;28.00;48.83
54236;BME280;40151;43.606;1.472;2023-07-29T07:00:11;99051.66;;;28.02;48.71
54236;BME280;40151;43.606;1.472;2023-07-29T07:02:36;99046.44;;;28.00;48.91
54236;BME280;40151;43.606;1.472;2023-07-29T07:05:02;99046.28;;;28.02;48.75
54236;BME280;40151;43.606;1.472;2023-07-29T07:07:27;99044.47;;;28.03;48.99
54236;BME280;40151;43.606;1.472;2023-07-29T07:09:53;99051.66;;;28.02;48.93
54236;BME280;40151;43.606;1.472;2023-07-29T07:12:19;99058.69;;;28.03;48.70
54236;BME280;40151;43.606;1.472;2023-07-29T07:14:44;99058.88;;;28.01;48.65
54236;BME280;40151;43.606;1.472;2023-07-29T07:17:09;99052.78;;;27.99;49.12
54236;BME280;40151;43.606;1.472;2023-07-29T07:19:35;99060.69;;;28.01;48.88
54236;BME280;40151;43.606;1.472;2023-07-29T07:22:00;99052.66;;;28.01;48.81
54236;BME280;40151;43.606;1.472;2023-07-29T07:24:25;99051.66;;;28.02;48.65
54236;BME280;40151;43.606;1.472;2023-07-29T07:26:51;99057.88;;;28.03;48.63
54236;BME280;40151;43.606;1.472;2023-07-29T07:29:16;99058.69;;;28.03;49.02
54236;BME280;40151;43.606;1.472;2023-07-29T07:31:50;99062.09;;;28.05;49.04
54236;BME280;40151;43.606;1.472;2023-07-29T07:34:16;99055.72;;;28.06;48.97
54236;BME280;40151;43.606;1.472;2023-07-29T07:36:41;99058.41;;;28.06;49.05
54236;BME280;40151;43.606;1.472;2023-07-29T07:39:07;99059.94;;;28.09;48.65
54236;BME280;40151;43.606;1.472;2023-07-29T07:41:32;99056.41;;;28.08;48.67
54236;BME280;40151;43.606;1.472;2023-07-29T07:43:57;99063.44;;;28.09;48.95
54236;BME280;40151;43.606;1.472;2023-07-29T07:46:23;99066.13;;;28.09;48.77
54236;BME280;40151;43.606;1.472;2023-07-29T07:48:48;99061.47;;;28.11;48.87
54236;BME280;40151;43.606;1.472;2023-07-29T07:51:14;99057.81;;;28.12;48.53
54236;BME280;40151;43.606;1.472;2023-07-29T07:53:39;99059.47;;;28.13;48.70
54236;BME280;40151;43.606;1.472;2023-07-29T07:56:06;99062.84;;;28.15;48.56
54236;BME280;40151;43.606;1.472;2023-07-29T07:58:32;99067.25;;;28.17;48.48
54236;BME280;40151;43.606;1.472;2023-07-29T08:01:04;99069.94;;;28.17;48.71
54236;BME280;40151;43.606;1.472;2023-07-29T08:03:30;99070.59;;;28.19;48.42
54236;BME280;40151;43.606;1.472;2023-07-29T08:05:56;99078.50;;;28.20;48.34
54236;BME280;40151;43.606;1.472;2023-07-29T08:08:21;99074.97;;;28.20;48.64
54236;BME280;40151;43.606;1.472;2023-07-29T08:10:47;99074.84;;;28.21;48.34
54236;BME280;40151;43.606;1.472;2023-07-29T08:13:12;99067.63;;;28.22;48.43
54236;BME280;40151;43.606;1.472;2023-07-29T08:15:37;99069.34;;;28.23;48.66
54236;BME280;40151;43.606;1.472;2023-07-29T08:18:03;99075.69;;;28.22;48.30
54236;BME280;40151;43.606;1.472;2023-07-29T08:20:28;99070.03;;;28.25;48.32
54236;BME280;40151;43.606;1.472;2023-07-29T08:22:54;99070.88;;;28.25;48.50
54236;BME280;40151;43.606;1.472;2023-07-29T08:25:19;99065.66;;;28.24;48.38
54236;BME280;40151;43.606;1.472;2023-07-29T08:27:44;99069.03;;;28.26;48.55
54236;BME280;40151;43.606;1.472;2023-07-29T08:30:10;99060.84;;;28.27;48.57
54236;BME280;40151;43.606;1.472;2023-07-29T08:32:36;99067.06;;;28.28;48.61
54236;BME280;40151;43.606;1.472;2023-07-29T08:35:01;99067.91;;;28.28;48.62
54236;BME280;40151;43.606;1.472;2023-07-29T08:37:26;99068.75;;;28.29;48.54
54236;BME280;40151;43.606;1.472;2023-07-29T08:39:52;99068.75;;;28.29;48.33
54236;BME280;40151;43.606;1.472;2023-07-29T08:42:19;99075.78;;;28.30;48.55
54236;BME280;40151;43.606;1.472;2023-07-29T08:44:49;99065.91;;;28.31;48.32
54236;BME280;40151;43.606;1.472;2023-07-29T08:47:14;99065.91;;;28.31;48.43
54236;BME280;40151;43.606;1.472;2023-07-29T08:49:40;99072.13;;;28.31;48.58
54236;BME280;40151;43.606;1.472;2023-07-29T08:52:07;99071.09;;;28.32;48.46
54236;BME280;40151;43.606;1.472;2023-07-29T08:54:33;99078.88;;;28.35;48.36
54236;BME280;40151;43.606;1.472;2023-07-29T08:56:59;99069.81;;;28.36;48.23
54236;BME280;40151;43.606;1.472;2023-07-29T08:59:26;99072.50;;;28.36;48.33
54236;BME280;40151;43.606;1.472;2023-07-29T09:01:52;99067.13;;;28.36;48.51
54236;BME280;40151;43.606;1.472;2023-07-29T09:04:20;99067.81;;;28.38;48.09
54236;BME280;40151;43.606;1.472;2023-07-29T09:06:47;99066.00;;;28.39;48.56
54236;BME280;40151;43.606;1.472;2023-07-29T09:09:15;99068.53;;;28.40;48.19
54236;BME280;40151;43.606;1.472;2023-07-29T09:11:40;99058.63;;;28.41;48.30
54236;BME280;40151;43.606;1.472;2023-07-29T09:14:06;99067.38;;;28.43;48.06
54236;BME280;40151;43.606;1.472;2023-07-29T09:16:32;99065.53;;;28.44;48.34
54236;BME280;40151;43.606;1.472;2023-07-29T09:19:01;99063.56;;;28.46;48.32
54236;BME280;40151;43.606;1.472;2023-07-29T09:21:26;99062.56;;;28.47;48.40
54236;BME280;40151;43.606;1.472;2023-07-29T09:23:54;99055.50;;;28.46;48.46
54236;BME280;40151;43.606;1.472;2023-07-29T09:26:27;99058.00;;;28.47;48.02
54236;BME280;40151;43.606;1.472;2023-07-29T09:28:54;99064.09;;;28.49;48.24
54236;BME280;40151;43.606;1.472;2023-07-29T09:31:27;99054.19;;;28.50;48.21
54236;BME280;40151;43.606;1.472;2023-07-29T09:34:00;99060.41;;;28.50;48.35
54236;BME280;40151;43.606;1.472;2023-07-29T09:36:26;99056.56;;;28.53;48.31
54236;BME280;40151;43.606;1.472;2023-07-29T09:38:55;99059.25;;;28.53;48.37
54236;BME280;40151;43.606;1.472;2023-07-29T09:41:26;99066.31;;;28.54;48.34
54236;BME280;40151;43.606;1.472;2023-07-29T09:43:59;99069.66;;;28.56;48.18
54236;BME280;40151;43.606;1.472;2023-07-29T09:46:35;99064.31;;;28.56;48.04
54236;BME280;40151;43.606;1.472;2023-07-29T09:49:05;99063.31;;;28.57;48.42
54236;BME280;40151;43.606;1.472;2023-07-29T09:51:31;99067.69;;;28.58;48.09
54236;BME280;40151;43.606;1.472;2023-07-29T09:53:56;99066.69;;;28.59;48.40
54236;BME280;40151;43.606;1.472;2023-07-29T09:56:25;99060.31;;;28.60;48.07
54236;BME280;40151;43.606;1.472;2023-07-29T09:58:52;99068.22;;;28.62;47.94
54236;BME280;40151;43.606;1.472;2023-07-29T10:01:17;99069.06;;;28.62;48.15
54236;BME280;40151;43.606;1.472;2023-07-29T10:03:44;99060.03;;;28.63;48.02
54236;BME280;40151;43.606;1.472;2023-07-29T10:06:10;99074.13;;;28.65;48.19
54236;BME280;40151;43.606;1.472;2023-07-29T10:08:36;99072.13;;;28.67;48.08
54236;BME280;40151;43.606;1.472;2023-07-29T10:11:06;99072.97;;;28.68;48.03
54236;BME280;40151;43.606;1.472;2023-07-29T10:13:32;99073.81;;;28.68;48.11
54236;BME280;40151;43.606;1.472;2023-07-29T10:15:58;99072.84;;;28.70;47.97
54236;BME280;40151;43.606;1.472;2023-07-29T10:18:24;99067.28;;;28.71;48.40
54236;BME280;40151;43.606;1.472;2023-07-29T10:20:51;99069.81;;;28.73;48.02
54236;BME280;40151;43.606;1.472;2023-07-29T10:23:18;99067.00;;;28.74;48.02
54236;BME280;40151;43.606;1.472;2023-07-29T10:25:49;99076.59;;;28.77;48.22
54236;BME280;40151;43.606;1.472;2023-07-29T10:28:15;99067.53;;;28.78;48.30
54236;BME280;40151;43.606;1.472;2023-07-29T10:30:44;99068.38;;;28.78;47.92
54236;BME280;40151;43.606;1.472;2023-07-29T10:33:09;99072.59;;;28.81;48.01
54236;BME280;40151;43.606;1.472;2023-07-29T10:35:36;99068.91;;;28.82;48.07
54236;BME280;40151;43.606;1.472;2023-07-29T10:38:03;99070.59;;;28.83;47.90
54236;BME280;40151;43.606;1.472;2023-07-29T10:43:11;99064.94;;;28.86;48.25
54236;BME280;40151;43.606;1.472;2023-07-29T10:45:39;99063.94;;;28.87;48.32
54236;BME280;40151;43.606;1.472;2023-07-29T10:48:11;99060.25;;;28.88;48.16
54236;BME280;40151;43.606;1.472;2023-07-29T10:50:37;99050.19;;;28.90;48.29
54236;BME280;40151;43.606;1.472;2023-07-29T10:53:02;99057.25;;;28.91;48.08
54236;BME280;40151;43.606;1.472;2023-07-29T10:58:12;99054.28;;;28.94;48.19
54236;BME280;40151;43.606;1.472;2023-07-29T11:00:41;99054.13;;;28.96;48.06
54236;BME280;40151;43.606;1.472;2023-07-29T11:03:07;99059.16;;;28.99;48.03
54236;BME280;40151;43.606;1.472;2023-07-29T11:06:04;99055.66;;;28.99;48.06
54236;BME280;40151;43.606;1.472;2023-07-29T11:08:30;99065.38;;;29.00;48.08
54236;BME280;40151;43.606;1.472;2023-07-29T11:11:02;99062.53;;;29.01;48.08
54236;BME280;40151;43.606;1.472;2023-07-29T11:13:29;99060.53;;;29.03;48.08
54236;BME280;40151;43.606;1.472;2023-07-29T11:15:55;99057.72;;;29.05;48.09
54236;BME280;40151;43.606;1.472;2023-07-29T11:18:27;99045.97;;;29.06;47.74
54236;BME280;40151;43.606;1.472;2023-07-29T11:20:54;99056.38;;;29.09;47.87
54236;BME280;40151;43.606;1.472;2023-07-29T11:23:20;99054.41;;;29.11;48.00
54236;BME280;40151;43.606;1.472;2023-07-29T11:25:51;99053.53;;;29.11;48.39
54236;BME280;40151;43.606;1.472;2023-07-29T11:28:17;99044.31;;;29.13;48.16
54236;BME280;40151;43.606;1.472;2023-07-29T11:30:43;99047.69;;;29.15;48.03
54236;BME280;40151;43.606;1.472;2023-07-29T11:33:09;99042.31;;;29.15;48.26
54236;BME280;40151;43.606;1.472;2023-07-29T11:35:35;99042.00;;;29.18;48.14
54236;BME280;40151;43.606;1.472;2023-07-29T11:38:00;99040.16;;;29.19;48.15
54236;BME280;40151;43.606;1.472;2023-07-29T11:40:26;99035.47;;;29.21;48.37
54236;BME280;40151;43.606;1.472;2023-07-29T11:42:52;99038.03;;;29.23;48.21
54236;BME280;40151;43.606;1.472;2023-07-29T11:45:19;99038.03;;;29.23;48.23
54236;BME280;40151;43.606;1.472;2023-07-29T11:47:45;99034.00;;;29.27;48.20
54236;BME280;40151;43.606;1.472;2023-07-29T11:50:12;99036.53;;;29.28;48.42
54236;BME280;40151;43.606;1.472;2023-07-29T11:52:42;99031.16;;;29.28;48.31
54236;BME280;40151;43.606;1.472;2023-07-29T11:55:08;99030.00;;;29.31;48.31
54236;BME280;40151;43.606;1.472;2023-07-29T11:57:36;99024.47;;;29.32;48.23
54236;BME280;40151;43.606;1.472;2023-07-29T12:00:06;99031.38;;;29.35;48.29
54236;BME280;40151;43.606;1.472;2023-07-29T12:02:34;99033.06;;;29.36;48.38
54236;BME280;40151;43.606;1.472;2023-07-29T12:05:03;99031.03;;;29.38;48.04
54236;BME280;40151;43.606;1.472;2023-07-29T12:07:29;99034.44;;;29.40;48.58
54236;BME280;40151;43.606;1.472;2023-07-29T12:09:55;99025.34;;;29.41;48.29
54236;BME280;40151;43.606;1.472;2023-07-29T12:12:22;99034.09;;;29.43;48.17
54236;BME280;40151;43.606;1.472;2023-07-29T12:14:48;99021.50;;;29.44;48.18
54236;BME280;40151;43.606;1.472;2023-07-29T12:17:14;99028.41;;;29.46;48.27
54236;BME280;40151;43.606;1.472;2023-07-29T12:19:41;99033.78;;;29.46;48.24
54236;BME280;40151;43.606;1.472;2023-07-29T12:22:09;99026.44;;;29.48;48.35
54236;BME280;40151;43.606;1.472;2023-07-29T12:24:39;99015.53;;;29.50;48.45
54236;BME280;40151;43.606;1.472;2023-07-29T12:27:05;99015.34;;;29.52;48.25
54236;BME280;40151;43.606;1.472;2023-07-29T12:29:31;99017.03;;;29.53;48.36
54236;BME280;40151;43.606;1.472;2023-07-29T12:32:01;99013.34;;;29.54;48.42
54236;BME280;40151;43.606;1.472;2023-07-29T12:34:28;99008.66;;;29.56;48.54
54236;BME280;40151;43.606;1.472;2023-07-29T12:36:55;99006.66;;;29.58;48.45
54236;BME280;40151;43.606;1.472;2023-07-29T12:39:26;99011.69;;;29.61;48.31
54236;BME280;40151;43.606;1.472;2023-07-29T12:41:54;99005.31;;;29.62;48.45
54236;BME280;40151;43.606;1.472;2023-07-29T12:44:20;99004.28;;;29.63;48.53
54236;BME280;40151;43.606;1.472;2023-07-29T12:46:45;99005.00;;;29.65;48.42
54236;BME280;40151;43.606;1.472;2023-07-29T12:49:11;99001.31;;;29.66;48.49
54236;BME280;40151;43.606;1.472;2023-07-29T12:51:36;98994.91;;;29.67;48.57
54236;BME280;40151;43.606;1.472;2023-07-29T12:54:03;98991.91;;;29.70;48.81
54236;BME280;40151;43.606;1.472;2023-07-29T12:56:32;98994.41;;;29.72;48.80
54236;BME280;40151;43.606;1.472;2023-07-29T12:58:59;98988.88;;;29.73;48.78
54236;BME280;40151;43.606;1.472;2023-07-29T13:01:25;98995.94;;;29.74;48.84
54236;BME280;40151;43.606;1.472;2023-07-29T13:03:50;98982.50;;;29.74;48.83
54236;BME280;40151;43.606;1.472;2023-07-29T13:06:16;98992.94;;;29.78;48.89
54236;BME280;40151;43.606;1.472;2023-07-29T13:08:42;98990.91;;;29.80;48.77